sensor_id;sensor_type;location;lat;lon;timestamp;P1;durP1;ratioP1;P2;durP2;ratioP2
51066;SDS011;37112;45.892;-123.962;2023-04-16T00:01:06;11.60;;;2.40;;
51066;SDS011;37112;45.892;-123.962;2023-04-16T00:03:16;13.50;;;2.60;;
51066;SDS011;37112;45.892;-123.962;2023-04-16T00:05:26;18.10;;;3.50;;
51066;SDS011;37112;45.892;-123.962;2023-04-16T00:07:36;16.60;;;3.10;;
51066;SDS011;37112;45.892;-123.962;2023-04-16T00:09:47;17.70;;;3.60;;
51066;SDS011;37112;45.892;-123.962;2023-04-16T00:11:56;20.40;;;3.40;;
51066;SDS011;37112;45.892;-123.962;2023-04-16T00:14:07;23.80;;;4.00;;
51066;SDS011;37112;45.892;-123.962;2023-04-16T00:16:16;14.40;;;2.40;;
51066;SDS011;37112;45.892;-123.962;2023-04-16T00:18:26;22.10;;;3.70;;
51066;SDS011;37112;45.892;-123.962;2023-04-16T00:20:36;18.90;;;3.40;;
51066;SDS011;37112;45.892;-123.962;2023-04-16T00:22:47;11.00;;;2.40;;
51066;SDS011;37112;45.892;-123.962;2023-04-16T00:24:57;18.30;;;4.20;;
51066;SDS011;37112;45.892;-123.962;2023-04-16T00:27:07;13.60;;;2.50;;
51066;SDS011;37112;45.892;-123.962;2023-04-16T00:29:17;13.10;;;2.60;;
51066;SDS011;37112;45.892;-123.962;2023-04-16T00:31:28;15.40;;;2.90;;
51066;SDS011;37112;45.892;-123.962;2023-04-16T00:33:40;18.30;;;3.40;;
51066;SDS011;37112;45.892;-123.962;2023-04-16T00:35:51;9.90;;;2.60;;
51066;SDS011;37112;45.892;-123.962;2023-04-16T00:38:01;13.20;;;2.90;;
51066;SDS011;37112;45.892;-123.962;2023-04-16T00:40:11;18.60;;;3.60;;
51066;SDS011;37112;45.892;-123.962;2023-04-16T00:42:21;12.10;;;2.30;;
51066;SDS011;37112;45.892;-123.962;2023-04-16T00:44:31;16.40;;;2.80;;
51066;SDS011;37112;45.892;-123.962;2023-04-16T00:46:41;12.30;;;2.80;;
51066;SDS011;37112;45.892;-123.962;2023-04-16T00:48:52;14.30;;;3.00;;
51066;SDS011;37112;45.892;-123.962;2023-04-16T00:51:02;14.90;;;3.90;;
51066;SDS011;37112;45.892;-123.962;2023-04-16T00:53:13;13.10;;;2.70;;
51066;SDS011;37112;45.892;-123.962;2023-04-16T00:55:24;19.30;;;3.30;;
51066;SDS011;37112;45.892;-123.962;2023-04-16T00:57:34;34.20;;;3.90;;
51066;SDS011;37112;45.892;-123.962;2023-04-16T00:59:44;11.80;;;2.50;;
51066;SDS011;37112;45.892;-123.962;2023-04-16T01:01:54;18.50;;;3.50;;
51066;SDS011;37112;45.892;-123.962;2023-04-16T01:04:05;18.70;;;3.60;;
51066;SDS011;37112;45.892;-123.962;2023-04-16T01:06:16;11.90;;;3.10;;
51066;SDS011;37112;45.892;-123.962;2023-04-16T01:08:26;15.20;;;3.10;;
51066;SDS011;37112;45.892;-123.962;2023-04-16T01:10:36;15.00;;;3.30;;
51066;SDS011;37112;45.892;-123.962;2023-04-16T01:12:45;18.10;;;3.90;;
51066;SDS011;37112;45.892;-123.962;2023-04-16T01:14:55;18.90;;;3.40;;
51066;SDS011;37112;45.892;-123.962;2023-04-16T01:17:05;21.20;;;2.70;;
51066;SDS011;37112;45.892;-123.962;2023-04-16T01:19:15;21.10;;;3.10;;
51066;SDS011;37112;45.892;-123.962;2023-04-16T01:21:25;20.20;;;3.40;;
51066;SDS011;37112;45.892;-123.962;2023-04-16T01:23:36;18.70;;;3.30;;
51066;SDS011;37112;45.892;-123.962;2023-04-16T01:25:45;20.20;;;4.00;;
51066;SDS011;37112;45.892;-123.962;2023-04-16T01:27:55;12.40;;;2.90;;
51066;SDS011;37112;45.892;-123.962;2023-04-16T01:30:06;13.90;;;4.20;;
51066;SDS011;37112;45.892;-123.962;2023-04-16T01:32:26;11.60;;;2.80;;
51066;SDS011;37112;45.892;-123.962;2023-04-16T01:34:38;17.70;;;4.00;;
51066;SDS011;37112;45.892;-123.962;2023-04-16T01:36:48;17.30;;;2.90;;
51066;SDS011;37112;45.892;-123.962;2023-04-16T01:38:58;12.90;;;3.10;;
51066;SDS011;37112;45.892;-123.962;2023-04-16T01:41:08;13.60;;;3.30;;
51066;SDS011;37112;45.892;-123.962;2023-04-16T01:43:19;13.50;;;2.90;;
51066;SDS011;37112;45.892;-123.962;2023-04-16T01:45:29;18.30;;;3.90;;
51066;SDS011;37112;45.892;-123.962;2023-04-16T01:47:39;20.70;;;3.30;;
51066;SDS011;37112;45.892;-123.962;2023-04-16T01:49:49;24.20;;;3.80;;
51066;SDS011;37112;45.892;-123.962;2023-04-16T01:51:59;15.70;;;3.00;;
51066;SDS011;37112;45.892;-123.962;2023-04-16T01:54:09;21.30;;;3.80;;
51066;SDS011;37112;45.892;-123.962;2023-04-16T01:56:19;15.60;;;3.20;;
51066;SDS011;37112;45.892;-123.962;2023-04-16T01:58:29;20.40;;;4.00;;
51066;SDS011;37112;45.892;-123.962;2023-04-16T02:00:39;4.10;;;1.90;;
51066;SDS011;37112;45.892;-123.962;2023-04-16T02:02:52;11.70;;;2.40;;
51066;SDS011;37112;45.892;-123.962;2023-04-16T02:05:04;12.10;;;2.70;;
51066;SDS011;37112;45.892;-123.962;2023-04-16T02:07:14;14.60;;;2.70;;
51066;SDS011;37112;45.892;-123.962;2023-04-16T02:09:25;17.20;;;3.80;;
51066;SDS011;37112;45.892;-123.962;2023-04-16T02:11:35;13.60;;;2.80;;
51066;SDS011;37112;45.892;-123.962;2023-04-16T02:13:44;17.70;;;3.00;;
51066;SDS011;37112;45.892;-123.962;2023-04-16T02:15:55;22.70;;;3.60;;
51066;SDS011;37112;45.892;-123.962;2023-04-16T02:18:22;21.60;;;4.20;;
51066;SDS011;37112;45.892;-123.962;2023-04-16T02:20:32;25.50;;;5.30;;
51066;SDS011;37112;45.892;-123.962;2023-04-16T02:22:46;13.20;;;3.20;;
51066;SDS011;37112;45.892;-123.962;2023-04-16T02:24:58;15.60;;;3.20;;
51066;SDS011;37112;45.892;-123.962;2023-04-16T02:27:08;14.10;;;3.30;;
51066;SDS011;37112;45.892;-123.962;2023-04-16T02:29:19;14.80;;;3.10;;
51066;SDS011;37112;45.892;-123.962;2023-04-16T02:31:33;20.60;;;3.30;;
51066;SDS011;37112;45.892;-123.962;2023-04-16T02:33:44;16.40;;;3.50;;
51066;SDS011;37112;45.892;-123.962;2023-04-16T02:35:54;12.60;;;3.10;;
51066;SDS011;37112;45.892;-123.962;2023-04-16T02:38:04;15.30;;;2.90;;
51066;SDS011;37112;45.892;-123.962;2023-04-16T02:40:15;17.10;;;3.10;;
51066;SDS011;37112;45.892;-123.962;2023-04-16T02:42:25;9.90;;;2.00;;
51066;SDS011;37112;45.892;-123.962;2023-04-16T02:44:35;15.80;;;3.30;;
51066;SDS011;37112;45.892;-123.962;2023-04-16T02:46:45;17.80;;;3.60;;
51066;SDS011;37112;45.892;-123.962;2023-04-16T02:48:55;18.10;;;2.90;;
51066;SDS011;37112;45.892;-123.962;2023-04-16T02:51:06;13.30;;;2.90;;
51066;SDS011;37112;45.892;-123.962;2023-04-16T02:53:16;19.50;;;3.90;;
51066;SDS011;37112;45.892;-123.962;2023-04-16T02:55:26;19.30;;;3.90;;
51066;SDS011;37112;45.892;-123.962;2023-04-16T02:57:36;22.40;;;3.70;;
51066;SDS011;37112;45.892;-123.962;2023-04-16T02:59:47;19.30;;;3.60;;
51066;SDS011;37112;45.892;-123.962;2023-04-16T03:01:57;17.30;;;3.40;;
51066;SDS011;37112;45.892;-123.962;2023-04-16T03:04:07;20.80;;;4.40;;
51066;SDS011;37112;45.892;-123.962;2023-04-16T03:06:17;15.90;;;3.50;;
51066;SDS011;37112;45.892;-123.962;2023-04-16T03:08:27;12.90;;;3.40;;
51066;SDS011;37112;45.892;-123.962;2023-04-16T03:10:36;18.70;;;4.30;;
51066;SDS011;37112;45.892;-123.962;2023-04-16T03:12:46;23.50;;;3.60;;
51066;SDS011;37112;45.892;-123.962;2023-04-16T03:14:56;22.90;;;4.30;;
51066;SDS011;37112;45.892;-123.962;2023-04-16T03:17:07;16.30;;;3.20;;
51066;SDS011;37112;45.892;-123.962;2023-04-16T03:19:17;19.30;;;4.20;;
51066;SDS011;37112;45.892;-123.962;2023-04-16T03:21:27;14.00;;;3.90;;
51066;SDS011;37112;45.892;-123.962;2023-04-16T03:23:37;13.30;;;2.70;;
51066;SDS011;37112;45.892;-123.962;2023-04-16T03:25:47;17.80;;;3.30;;
51066;SDS011;37112;45.892;-123.962;2023-04-16T03:27:57;12.70;;;2.50;;
51066;SDS011;37112;45.892;-123.962;2023-04-16T03:30:10;15.20;;;2.90;;
51066;SDS011;37112;45.892;-123.962;2023-04-16T03:32:21;9.60;;;2.20;;
51066;SDS011;37112;45.892;-123.962;2023-04-16T03:34:31;23.30;;;3.70;;
51066;SDS011;37112;45.892;-123.962;2023-04-16T03:36:41;15.40;;;3.00;;
51066;SDS011;37112;45.892;-123.962;2023-04-16T03:38:51;16.60;;;2.50;;
51066;SDS011;37112;45.892;-123.962;2023-04-16T03:41:01;14.30;;;2.60;;
51066;SDS011;37112;45.892;-123.962;2023-04-16T03:43:11;16.80;;;3.30;;
51066;SDS011;37112;45.892;-123.962;2023-04-16T03:45:23;15.40;;;3.00;;
51066;SDS011;37112;45.892;-123.962;2023-04-16T03:47:33;13.80;;;3.40;;
51066;SDS011;37112;45.892;-123.962;2023-04-16T03:49:44;23.50;;;4.50;;
51066;SDS011;37112;45.892;-123.962;2023-04-16T03:51:55;14.90;;;3.10;;
51066;SDS011;37112;45.892;-123.962;2023-04-16T03:54:05;13.20;;;2.80;;
51066;SDS011;37112;45.892;-123.962;2023-04-16T03:56:16;17.80;;;2.80;;
51066;SDS011;37112;45.892;-123.962;2023-04-16T03:58:28;15.60;;;2.70;;
51066;SDS011;37112;45.892;-123.962;2023-04-16T04:00:41;18.60;;;2.60;;
51066;SDS011;37112;45.892;-123.962;2023-04-16T04:02:52;20.30;;;2.00;;
51066;SDS011;37112;45.892;-123.962;2023-04-16T04:05:05;15.40;;;3.10;;
51066;SDS011;37112;45.892;-123.962;2023-04-16T04:07:16;30.60;;;3.50;;
51066;SDS011;37112;45.892;-123.962;2023-04-16T04:09:26;17.80;;;3.50;;
51066;SDS011;37112;45.892;-123.962;2023-04-16T04:11:40;16.30;;;3.30;;
51066;SDS011;37112;45.892;-123.962;2023-04-16T04:13:52;11.30;;;3.40;;
51066;SDS011;37112;45.892;-123.962;2023-04-16T04:16:02;19.20;;;3.50;;
51066;SDS011;37112;45.892;-123.962;2023-04-16T04:18:12;13.70;;;3.50;;
51066;SDS011;37112;45.892;-123.962;2023-04-16T04:20:22;15.20;;;2.80;;
51066;SDS011;37112;45.892;-123.962;2023-04-16T04:22:33;19.80;;;3.40;;
51066;SDS011;37112;45.892;-123.962;2023-04-16T04:24:43;22.10;;;2.70;;
51066;SDS011;37112;45.892;-123.962;2023-04-16T04:26:53;17.30;;;2.50;;
51066;SDS011;37112;45.892;-123.962;2023-04-16T04:29:03;14.70;;;2.10;;
51066;SDS011;37112;45.892;-123.962;2023-04-16T04:31:13;12.20;;;2.80;;
51066;SDS011;37112;45.892;-123.962;2023-04-16T04:33:23;13.60;;;3.00;;
51066;SDS011;37112;45.892;-123.962;2023-04-16T04:35:33;14.10;;;2.00;;
51066;SDS011;37112;45.892;-123.962;2023-04-16T04:37:43;11.30;;;2.80;;
51066;SDS011;37112;45.892;-123.962;2023-04-16T04:39:56;13.10;;;3.20;;
51066;SDS011;37112;45.892;-123.962;2023-04-16T04:42:05;12.70;;;3.60;;
51066;SDS011;37112;45.892;-123.962;2023-04-16T04:44:16;19.70;;;3.10;;
51066;SDS011;37112;45.892;-123.962;2023-04-16T04:46:26;18.20;;;2.80;;
51066;SDS011;37112;45.892;-123.962;2023-04-16T04:48:36;28.80;;;3.10;;
51066;SDS011;37112;45.892;-123.962;2023-04-16T04:50:46;16.10;;;2.80;;
51066;SDS011;37112;45.892;-123.962;2023-04-16T04:52:56;27.60;;;4.30;;
51066;SDS011;37112;45.892;-123.962;2023-04-16T04:55:07;15.70;;;3.50;;
51066;SDS011;37112;45.892;-123.962;2023-04-16T04:57:19;11.50;;;2.60;;
51066;SDS011;37112;45.892;-123.962;2023-04-16T04:59:31;17.20;;;4.30;;
51066;SDS011;37112;45.892;-123.962;2023-04-16T05:01:41;24.90;;;3.80;;
51066;SDS011;37112;45.892;-123.962;2023-04-16T05:03:51;11.60;;;3.20;;
51066;SDS011;37112;45.892;-123.962;2023-04-16T05:06:01;15.60;;;2.30;;
51066;SDS011;37112;45.892;-123.962;2023-04-16T05:08:11;19.20;;;3.40;;
51066;SDS011;37112;45.892;-123.962;2023-04-16T05:10:21;11.00;;;2.80;;
51066;SDS011;37112;45.892;-123.962;2023-04-16T05:12:30;13.30;;;2.80;;
51066;SDS011;37112;45.892;-123.962;2023-04-16T05:14:40;11.60;;;3.10;;
51066;SDS011;37112;45.892;-123.962;2023-04-16T05:16:50;15.20;;;2.70;;
51066;SDS011;37112;45.892;-123.962;2023-04-16T05:19:00;12.30;;;2.50;;
51066;SDS011;37112;45.892;-123.962;2023-04-16T05:21:11;10.20;;;3.50;;
51066;SDS011;37112;45.892;-123.962;2023-04-16T05:23:21;12.80;;;3.40;;
51066;SDS011;37112;45.892;-123.962;2023-04-16T05:25:31;12.60;;;2.40;;
51066;SDS011;37112;45.892;-123.962;2023-04-16T05:27:41;14.60;;;3.50;;
51066;SDS011;37112;45.892;-123.962;2023-04-16T05:29:57;18.70;;;3.20;;
51066;SDS011;37112;45.892;-123.962;2023-04-16T05:32:07;9.60;;;1.70;;
51066;SDS011;37112;45.892;-123.962;2023-04-16T05:34:17;12.70;;;2.90;;
51066;SDS011;37112;45.892;-123.962;2023-04-16T05:36:27;8.50;;;2.00;;
51066;SDS011;37112;45.892;-123.962;2023-04-16T05:38:36;11.00;;;2.00;;
51066;SDS011;37112;45.892;-123.962;2023-04-16T05:40:46;6.30;;;1.70;;
51066;SDS011;37112;45.892;-123.962;2023-04-16T05:42:56;9.60;;;2.40;;
51066;SDS011;37112;45.892;-123.962;2023-04-16T05:45:07;8.60;;;1.90;;
51066;SDS011;37112;45.892;-123.962;2023-04-16T05:47:18;9.10;;;1.70;;
51066;SDS011;37112;45.892;-123.962;2023-04-16T05:49:27;13.50;;;2.30;;
51066;SDS011;37112;45.892;-123.962;2023-04-16T05:51:37;11.90;;;2.60;;
51066;SDS011;37112;45.892;-123.962;2023-04-16T05:53:47;8.00;;;1.60;;
51066;SDS011;37112;45.892;-123.962;2023-04-16T05:55:58;10.70;;;2.90;;
51066;SDS011;37112;45.892;-123.962;2023-04-16T05:58:08;10.10;;;2.10;;
51066;SDS011;37112;45.892;-123.962;2023-04-16T06:00:18;17.10;;;4.20;;
51066;SDS011;37112;45.892;-123.962;2023-04-16T06:02:28;10.50;;;2.20;;
51066;SDS011;37112;45.892;-123.962;2023-04-16T06:04:38;12.30;;;2.00;;
51066;SDS011;37112;45.892;-123.962;2023-04-16T06:06:49;17.80;;;3.30;;
51066;SDS011;37112;45.892;-123.962;2023-04-16T06:08:58;14.10;;;2.80;;
51066;SDS011;37112;45.892;-123.962;2023-04-16T06:11:09;8.60;;;1.70;;
51066;SDS011;37112;45.892;-123.962;2023-04-16T06:13:19;8.20;;;2.00;;
51066;SDS011;37112;45.892;-123.962;2023-04-16T06:15:29;14.20;;;2.70;;
51066;SDS011;37112;45.892;-123.962;2023-04-16T06:17:40;21.60;;;2.70;;
51066;SDS011;37112;45.892;-123.962;2023-04-16T06:19:50;12.30;;;2.50;;
51066;SDS011;37112;45.892;-123.962;2023-04-16T06:22:00;14.50;;;3.70;;
51066;SDS011;37112;45.892;-123.962;2023-04-16T06:24:11;15.70;;;2.40;;
51066;SDS011;37112;45.892;-123.962;2023-04-16T06:26:21;11.20;;;2.50;;
51066;SDS011;37112;45.892;-123.962;2023-04-16T06:28:31;10.60;;;2.70;;
51066;SDS011;37112;45.892;-123.962;2023-04-16T06:30:41;15.00;;;3.00;;
51066;SDS011;37112;45.892;-123.962;2023-04-16T06:32:52;14.70;;;2.50;;
51066;SDS011;37112;45.892;-123.962;2023-04-16T06:35:02;10.40;;;2.00;;
51066;SDS011;37112;45.892;-123.962;2023-04-16T06:37:12;22.90;;;4.80;;
51066;SDS011;37112;45.892;-123.962;2023-04-16T06:39:23;11.70;;;1.80;;
51066;SDS011;37112;45.892;-123.962;2023-04-16T06:41:32;6.50;;;1.60;;
51066;SDS011;37112;45.892;-123.962;2023-04-16T06:43:42;12.70;;;1.80;;
51066;SDS011;37112;45.892;-123.962;2023-04-16T06:45:52;6.00;;;2.60;;
51066;SDS011;37112;45.892;-123.962;2023-04-16T06:48:02;4.80;;;1.50;;
51066;SDS011;37112;45.892;-123.962;2023-04-16T06:50:12;4.80;;;1.60;;
51066;SDS011;37112;45.892;-123.962;2023-04-16T06:52:22;10.80;;;1.80;;
51066;SDS011;37112;45.892;-123.962;2023-04-16T06:54:32;9.20;;;2.20;;
51066;SDS011;37112;45.892;-123.962;2023-04-16T06:56:42;8.80;;;1.80;;
51066;SDS011;37112;45.892;-123.962;2023-04-16T06:58:52;8.80;;;2.10;;
51066;SDS011;37112;45.892;-123.962;2023-04-16T07:01:03;11.20;;;2.30;;
51066;SDS011;37112;45.892;-123.962;2023-04-16T07:03:14;6.60;;;1.60;;
51066;SDS011;37112;45.892;-123.962;2023-04-16T07:05:24;7.90;;;1.50;;
51066;SDS011;37112;45.892;-123.962;2023-04-16T07:07:35;5.70;;;1.60;;
51066;SDS011;37112;45.892;-123.962;2023-04-16T07:09:45;5.90;;;1.60;;
51066;SDS011;37112;45.892;-123.962;2023-04-16T07:11:55;3.80;;;1.50;;
51066;SDS011;37112;45.892;-123.962;2023-04-16T07:14:05;3.90;;;1.20;;
51066;SDS011;37112;45.892;-123.962;2023-04-16T07:16:15;4.80;;;1.10;;
51066;SDS011;37112;45.892;-123.962;2023-04-16T07:18:25;4.70;;;1.20;;
51066;SDS011;37112;45.892;-123.962;2023-04-16T07:20:35;4.20;;;1.10;;
51066;SDS011;37112;45.892;-123.962;2023-04-16T07:22:47;11.00;;;2.40;;
51066;SDS011;37112;45.892;-123.962;2023-04-16T07:24:57;8.50;;;1.40;;
51066;SDS011;37112;45.892;-123.962;2023-04-16T07:27:06;10.70;;;1.60;;
51066;SDS011;37112;45.892;-123.962;2023-04-16T07:29:17;8.30;;;1.90;;
51066;SDS011;37112;45.892;-123.962;2023-04-16T07:31:27;6.30;;;1.80;;
51066;SDS011;37112;45.892;-123.962;2023-04-16T07:33:37;6.80;;;1.40;;
51066;SDS011;37112;45.892;-123.962;2023-04-16T07:35:47;4.70;;;1.80;;
51066;SDS011;37112;45.892;-123.962;2023-04-16T07:37:57;9.60;;;1.70;;
51066;SDS011;37112;45.892;-123.962;2023-04-16T07:40:07;4.00;;;1.60;;
51066;SDS011;37112;45.892;-123.962;2023-04-16T07:42:18;7.60;;;2.00;;
51066;SDS011;37112;45.892;-123.962;2023-04-16T07:44:28;4.00;;;2.60;;
51066;SDS011;37112;45.892;-123.962;2023-04-16T07:46:38;4.80;;;1.10;;
51066;SDS011;37112;45.892;-123.962;2023-04-16T07:48:52;10.90;;;2.30;;
51066;SDS011;37112;45.892;-123.962;2023-04-16T07:51:01;8.50;;;1.40;;
51066;SDS011;37112;45.892;-123.962;2023-04-16T07:53:11;7.00;;;1.30;;
51066;SDS011;37112;45.892;-123.962;2023-04-16T07:55:22;5.20;;;2.30;;
51066;SDS011;37112;45.892;-123.962;2023-04-16T07:57:32;7.60;;;1.60;;
51066;SDS011;37112;45.892;-123.962;2023-04-16T07:59:42;6.60;;;1.30;;
51066;SDS011;37112;45.892;-123.962;2023-04-16T08:01:52;3.40;;;1.10;;
51066;SDS011;37112;45.892;-123.962;2023-04-16T08:04:02;9.10;;;2.90;;
51066;SDS011;37112;45.892;-123.962;2023-04-16T08:06:12;3.70;;;1.40;;
51066;SDS011;37112;45.892;-123.962;2023-04-16T08:08:22;7.00;;;1.80;;
51066;SDS011;37112;45.892;-123.962;2023-04-16T08:12:41;8.30;;;2.30;;
51066;SDS011;37112;45.892;-123.962;2023-04-16T08:14:51;8.50;;;2.00;;
51066;SDS011;37112;45.892;-123.962;2023-04-16T08:17:01;7.50;;;1.60;;
51066;SDS011;37112;45.892;-123.962;2023-04-16T08:19:10;30.30;;;10.60;;
51066;SDS011;37112;45.892;-123.962;2023-04-16T08:21:20;8.60;;;2.50;;
51066;SDS011;37112;45.892;-123.962;2023-04-16T08:23:30;6.20;;;1.70;;
51066;SDS011;37112;45.892;-123.962;2023-04-16T08:25:41;8.00;;;2.00;;
51066;SDS011;37112;45.892;-123.962;2023-04-16T08:27:51;7.80;;;1.40;;
51066;SDS011;37112;45.892;-123.962;2023-04-16T08:30:01;8.50;;;1.40;;
51066;SDS011;37112;45.892;-123.962;2023-04-16T08:32:11;6.20;;;1.80;;
51066;SDS011;37112;45.892;-123.962;2023-04-16T08:34:22;6.00;;;1.30;;
51066;SDS011;37112;45.892;-123.962;2023-04-16T08:36:31;3.80;;;1.20;;
51066;SDS011;37112;45.892;-123.962;2023-04-16T08:38:41;5.40;;;1.20;;
51066;SDS011;37112;45.892;-123.962;2023-04-16T08:40:51;8.90;;;1.50;;
51066;SDS011;37112;45.892;-123.962;2023-04-16T08:43:02;5.30;;;1.60;;
51066;SDS011;37112;45.892;-123.962;2023-04-16T08:45:16;8.20;;;1.40;;
51066;SDS011;37112;45.892;-123.962;2023-04-16T08:47:26;14.80;;;5.20;;
51066;SDS011;37112;45.892;-123.962;2023-04-16T08:51:50;5.80;;;2.30;;
51066;SDS011;37112;45.892;-123.962;2023-04-16T08:54:02;6.00;;;1.00;;
51066;SDS011;37112;45.892;-123.962;2023-04-16T08:56:15;8.50;;;1.50;;
51066;SDS011;37112;45.892;-123.962;2023-04-16T08:58:29;7.00;;;1.40;;
51066;SDS011;37112;45.892;-123.962;2023-04-16T09:02:51;4.60;;;1.10;;
51066;SDS011;37112;45.892;-123.962;2023-04-16T09:05:01;4.40;;;1.20;;
51066;SDS011;37112;45.892;-123.962;2023-04-16T09:07:13;2.80;;;1.20;;
51066;SDS011;37112;45.892;-123.962;2023-04-16T09:09:26;5.40;;;1.70;;
51066;SDS011;37112;45.892;-123.962;2023-04-16T09:11:39;10.30;;;1.90;;
51066;SDS011;37112;45.892;-123.962;2023-04-16T09:13:50;6.10;;;1.40;;
51066;SDS011;37112;45.892;-123.962;2023-04-16T09:16:01;8.90;;;2.20;;
51066;SDS011;37112;45.892;-123.962;2023-04-16T09:18:12;2.30;;;1.10;;
51066;SDS011;37112;45.892;-123.962;2023-04-16T09:20:21;5.20;;;1.90;;
51066;SDS011;37112;45.892;-123.962;2023-04-16T09:22:32;11.30;;;2.50;;
51066;SDS011;37112;45.892;-123.962;2023-04-16T09:24:42;7.70;;;2.00;;
51066;SDS011;37112;45.892;-123.962;2023-04-16T09:26:52;4.70;;;1.10;;
51066;SDS011;37112;45.892;-123.962;2023-04-16T09:29:03;7.40;;;1.50;;
51066;SDS011;37112;45.892;-123.962;2023-04-16T09:31:15;6.80;;;2.10;;
51066;SDS011;37112;45.892;-123.962;2023-04-16T09:33:25;6.90;;;2.40;;
51066;SDS011;37112;45.892;-123.962;2023-04-16T09:35:43;4.10;;;1.30;;
51066;SDS011;37112;45.892;-123.962;2023-04-16T09:37:56;3.70;;;1.20;;
51066;SDS011;37112;45.892;-123.962;2023-04-16T09:42:19;2.90;;;1.40;;
51066;SDS011;37112;45.892;-123.962;2023-04-16T09:44:35;2.40;;;1.50;;
51066;SDS011;37112;45.892;-123.962;2023-04-16T09:46:45;4.00;;;1.20;;
51066;SDS011;37112;45.892;-123.962;2023-04-16T09:48:55;8.00;;;1.10;;
51066;SDS011;37112;45.892;-123.962;2023-04-16T09:51:06;5.10;;;1.20;;
51066;SDS011;37112;45.892;-123.962;2023-04-16T09:53:20;5.00;;;1.80;;
51066;SDS011;37112;45.892;-123.962;2023-04-16T09:55:32;5.90;;;1.60;;
51066;SDS011;37112;45.892;-123.962;2023-04-16T09:57:42;14.20;;;3.20;;
51066;SDS011;37112;45.892;-123.962;2023-04-16T09:59:53;14.20;;;4.10;;
51066;SDS011;37112;45.892;-123.962;2023-04-16T10:02:08;3.90;;;1.40;;
51066;SDS011;37112;45.892;-123.962;2023-04-16T10:04:20;10.50;;;1.50;;
51066;SDS011;37112;45.892;-123.962;2023-04-16T10:06:31;4.30;;;1.20;;
51066;SDS011;37112;45.892;-123.962;2023-04-16T10:08:43;6.40;;;1.50;;
51066;SDS011;37112;45.892;-123.962;2023-04-16T10:10:55;4.00;;;0.90;;
51066;SDS011;37112;45.892;-123.962;2023-04-16T10:13:06;6.70;;;1.20;;
51066;SDS011;37112;45.892;-123.962;2023-04-16T10:15:17;3.10;;;1.10;;
51066;SDS011;37112;45.892;-123.962;2023-04-16T10:17:28;4.80;;;0.80;;
51066;SDS011;37112;45.892;-123.962;2023-04-16T10:19:39;3.10;;;0.80;;
51066;SDS011;37112;45.892;-123.962;2023-04-16T10:21:50;6.10;;;1.20;;
51066;SDS011;37112;45.892;-123.962;2023-04-16T10:24:01;4.30;;;1.30;;
51066;SDS011;37112;45.892;-123.962;2023-04-16T10:26:11;2.60;;;0.90;;
51066;SDS011;37112;45.892;-123.962;2023-04-16T10:28:22;5.10;;;1.00;;
51066;SDS011;37112;45.892;-123.962;2023-04-16T10:30:34;4.60;;;1.10;;
51066;SDS011;37112;45.892;-123.962;2023-04-16T10:32:45;4.70;;;0.90;;
51066;SDS011;37112;45.892;-123.962;2023-04-16T10:34:56;1.60;;;0.90;;
51066;SDS011;37112;45.892;-123.962;2023-04-16T10:37:06;9.60;;;3.10;;
51066;SDS011;37112;45.892;-123.962;2023-04-16T10:39:17;4.00;;;1.20;;
51066;SDS011;37112;45.892;-123.962;2023-04-16T10:41:30;6.90;;;1.80;;
51066;SDS011;37112;45.892;-123.962;2023-04-16T10:43:42;5.20;;;1.00;;
51066;SDS011;37112;45.892;-123.962;2023-04-16T10:45:52;2.70;;;1.40;;
51066;SDS011;37112;45.892;-123.962;2023-04-16T10:48:04;2.80;;;1.00;;
51066;SDS011;37112;45.892;-123.962;2023-04-16T10:50:16;6.30;;;0.80;;
51066;SDS011;37112;45.892;-123.962;2023-04-16T10:52:26;2.60;;;1.10;;
51066;SDS011;37112;45.892;-123.962;2023-04-16T10:54:38;7.30;;;1.10;;
51066;SDS011;37112;45.892;-123.962;2023-04-16T10:56:48;3.30;;;1.00;;
51066;SDS011;37112;45.892;-123.962;2023-04-16T10:58:59;7.70;;;1.70;;
51066;SDS011;37112;45.892;-123.962;2023-04-16T11:01:13;5.90;;;1.50;;
51066;SDS011;37112;45.892;-123.962;2023-04-16T11:03:24;3.80;;;0.80;;
51066;SDS011;37112;45.892;-123.962;2023-04-16T11:05:45;2.40;;;0.70;;
51066;SDS011;37112;45.892;-123.962;2023-04-16T11:07:55;2.30;;;1.10;;
51066;SDS011;37112;45.892;-123.962;2023-04-16T11:10:20;1.60;;;0.70;;
51066;SDS011;37112;45.892;-123.962;2023-04-16T11:12:32;2.10;;;0.90;;
51066;SDS011;37112;45.892;-123.962;2023-04-16T11:14:44;3.70;;;0.80;;
51066;SDS011;37112;45.892;-123.962;2023-04-16T11:16:56;1.70;;;0.60;;
51066;SDS011;37112;45.892;-123.962;2023-04-16T11:19:14;1.30;;;0.60;;
51066;SDS011;37112;45.892;-123.962;2023-04-16T11:21:24;8.10;;;2.50;;
51066;SDS011;37112;45.892;-123.962;2023-04-16T11:23:45;6.10;;;1.40;;
51066;SDS011;37112;45.892;-123.962;2023-04-16T11:25:56;6.60;;;1.20;;
51066;SDS011;37112;45.892;-123.962;2023-04-16T11:28:05;1.00;;;0.50;;
51066;SDS011;37112;45.892;-123.962;2023-04-16T11:30:15;1.60;;;0.70;;
51066;SDS011;37112;45.892;-123.962;2023-04-16T11:32:26;2.20;;;0.70;;
51066;SDS011;37112;45.892;-123.962;2023-04-16T11:34:45;4.30;;;1.20;;
51066;SDS011;37112;45.892;-123.962;2023-04-16T11:36:55;2.00;;;0.60;;
51066;SDS011;37112;45.892;-123.962;2023-04-16T11:39:05;2.30;;;0.70;;
51066;SDS011;37112;45.892;-123.962;2023-04-16T11:41:19;2.10;;;1.20;;
51066;SDS011;37112;45.892;-123.962;2023-04-16T11:43:29;3.10;;;0.50;;
51066;SDS011;37112;45.892;-123.962;2023-04-16T11:45:40;3.50;;;0.80;;
51066;SDS011;37112;45.892;-123.962;2023-04-16T11:48:01;1.90;;;0.70;;
51066;SDS011;37112;45.892;-123.962;2023-04-16T11:50:16;4.30;;;0.90;;
51066;SDS011;37112;45.892;-123.962;2023-04-16T11:52:28;2.40;;;0.70;;
51066;SDS011;37112;45.892;-123.962;2023-04-16T11:54:39;1.10;;;0.60;;
51066;SDS011;37112;45.892;-123.962;2023-04-16T11:56:56;3.00;;;0.70;;
51066;SDS011;37112;45.892;-123.962;2023-04-16T12:01:20;2.10;;;0.70;;
51066;SDS011;37112;45.892;-123.962;2023-04-16T12:03:37;3.10;;;0.70;;
51066;SDS011;37112;45.892;-123.962;2023-04-16T12:05:51;2.10;;;0.70;;
51066;SDS011;37112;45.892;-123.962;2023-04-16T12:08:01;7.20;;;0.80;;
51066;SDS011;37112;45.892;-123.962;2023-04-16T12:10:12;5.90;;;0.90;;
51066;SDS011;37112;45.892;-123.962;2023-04-16T12:12:25;1.70;;;0.80;;
51066;SDS011;37112;45.892;-123.962;2023-04-16T12:14:37;4.20;;;0.90;;
51066;SDS011;37112;45.892;-123.962;2023-04-16T12:16:55;4.80;;;0.60;;
51066;SDS011;37112;45.892;-123.962;2023-04-16T12:19:22;1.80;;;0.40;;
51066;SDS011;37112;45.892;-123.962;2023-04-16T12:21:38;1.40;;;0.60;;
51066;SDS011;37112;45.892;-123.962;2023-04-16T12:23:51;3.40;;;0.80;;
51066;SDS011;37112;45.892;-123.962;2023-04-16T12:26:06;4.60;;;0.70;;
51066;SDS011;37112;45.892;-123.962;2023-04-16T12:28:26;1.20;;;0.50;;
51066;SDS011;37112;45.892;-123.962;2023-04-16T12:30:47;11.10;;;4.50;;
51066;SDS011;37112;45.892;-123.962;2023-04-16T12:35:31;2.10;;;0.50;;
51066;SDS011;37112;45.892;-123.962;2023-04-16T12:37:41;0.90;;;0.50;;
51066;SDS011;37112;45.892;-123.962;2023-04-16T12:39:51;0.60;;;0.60;;
51066;SDS011;37112;45.892;-123.962;2023-04-16T12:42:01;1.20;;;0.80;;